Time;durP1;ratioP1;P1;durP2;ratioP2;P2;SDS_P1;SDS_P2;PMS_P1;PMS_P2;Temp;Humidity;BMP_temperature;BMP_pressure;BME280_temperature;BME280_humidity;BME280_pressure;Samples;Min_cycle;Max_cycle;Signal;HPM_P1;HPM_P2
2022/04/14 00:00:24;;;;;;;15.00;11.27;;;;;;;;;;5049159;28;20037;-51
2022/04/14 00:02:50;;;;;;;16.65;10.80;;;;;;;;;;5048855;28;20070;-48
2022/04/14 00:05:16;;;;;;;15.93;10.98;;;;;;;;;;5048829;28;20082;-51
2022/04/14 00:07:44;;;;;;;16.38;11.68;;;;;;;;;;5049059;28;20111;-50
2022/04/14 00:10:10;;;;;;;18.50;11.93;;;;;;;;;;5049226;28;20029;-52
2022/04/14 00:12:36;;;;;;;14.95;10.88;;;;;;;;;;5049004;28;20117;-50
2022/04/14 00:15:02;;;;;;;14.65;11.32;;;;;;;;;;5048788;28;20056;-50
2022/04/14 00:17:29;;;;;;;15.40;11.60;;;;;;;;;;5048788;28;20040;-55
2022/04/14 00:19:55;;;;;;;16.77;11.73;;;;;;;;;;5048828;28;20032;-52
2022/04/14 00:22:21;;;;;;;17.35;11.30;;;;;;;;;;5048717;28;20174;-53
2022/04/14 00:24:47;;;;;;;16.67;11.20;;;;;;;;;;5048991;28;20067;-54
2022/04/14 00:27:13;;;;;;;17.77;11.77;;;;;;;;;;5048412;28;20554;-51
2022/04/14 00:29:39;;;;;;;17.15;10.55;;;;;;;;;;5048867;28;20032;-53
2022/04/14 00:32:05;;;;;;;17.00;11.50;;;;;;;;;;5048578;28;20122;-54
2022/04/14 00:34:32;;;;;;;14.77;11.02;;;;;;;;;;5048636;28;20067;-54
2022/04/14 00:36:58;;;;;;;17.48;11.88;;;;;;;;;;5048834;28;20091;-51
2022/04/14 00:39:24;;;;;;;15.73;11.30;;;;;;;;;;5048136;28;20021;-55
2022/04/14 00:41:50;;;;;;;16.08;11.20;;;;;;;;;;5048717;28;20709;-53
2022/04/14 00:44:16;;;;;;;16.20;11.27;;;;;;;;;;5048490;28;20863;-54
2022/04/14 00:46:42;;;;;;;15.35;11.13;;;;;;;;;;5048491;28;20120;-55
2022/04/14 00:49:08;;;;;;;15.52;10.93;;;;;;;;;;5048941;28;20037;-55
2022/04/14 00:51:34;;;;;;;16.45;11.25;;;;;;;;;;5046178;28;20100;-52
2022/04/14 00:54:00;;;;;;;15.60;11.52;;;;;;;;;;5048475;28;20028;-54
2022/04/14 00:56:26;;;;;;;14.20;10.90;;;;;;;;;;5048627;28;20029;-53
2022/04/14 00:58:52;;;;;;;15.50;11.55;;;;;;;;;;5049886;28;20466;-51
2022/04/14 01:01:20;;;;;;;16.30;11.73;;;;;;;;;;5051875;28;20475;-55
2022/04/14 01:03:46;;;;;;;15.75;11.82;;;;;;;;;;5051828;28;20395;-53
2022/04/14 01:06:19;;;;;;;16.40;11.50;;;;;;;;;;5051604;28;20052;-53
2022/04/14 01:09:16;;;;;;;15.80;11.43;;;;;;;;;;5052197;28;20398;-55
2022/04/14 01:11:31;;;;;;;15.57;11.10;;;;;;;;;;5051443;28;20037;-51
2022/04/14 01:13:58;;;;;;;14.40;10.80;;;;;;;;;;5051946;28;20029;-52
2022/04/14 01:16:24;;;;;;;15.57;10.63;;;;;;;;;;5051893;28;20029;-52
2022/04/14 01:18:51;;;;;;;15.48;11.18;;;;;;;;;;5051368;28;20570;-54
2022/04/14 01:21:17;;;;;;;13.50;10.77;;;;;;;;;;5051439;28;20575;-53
2022/04/14 01:23:44;;;;;;;13.82;10.68;;;;;;;;;;5052110;28;20036;-54
2022/04/14 01:26:11;;;;;;;14.88;11.82;;;;;;;;;;5051121;28;20156;-53
2022/04/14 01:28:37;;;;;;;14.75;11.45;;;;;;;;;;5051239;28;20037;-50
2022/04/14 01:31:03;;;;;;;16.55;11.15;;;;;;;;;;5051212;28;20139;-55
2022/04/14 01:33:29;;;;;;;15.25;10.80;;;;;;;;;;5045130;28;20556;-53
2022/04/14 01:35:55;;;;;;;15.80;12.25;;;;;;;;;;5044542;28;20021;-52
2022/04/14 01:38:21;;;;;;;16.27;11.38;;;;;;;;;;5051595;28;20056;-54
2022/04/14 01:40:47;;;;;;;13.48;10.75;;;;;;;;;;5047319;28;20069;-55
2022/04/14 01:43:13;;;;;;;16.20;10.80;;;;;;;;;;5036373;28;20030;-52
2022/04/14 01:45:40;;;;;;;14.68;11.10;;;;;;;;;;5038017;28;20033;-51
2022/04/14 01:48:06;;;;;;;14.10;11.57;;;;;;;;;;5049816;28;20057;-55
2022/04/14 01:50:32;;;;;;;14.60;10.68;;;;;;;;;;5049950;28;20048;-51
2022/04/14 01:52:58;;;;;;;13.88;10.68;;;;;;;;;;5050050;28;20096;-54
2022/04/14 01:55:24;;;;;;;14.93;10.48;;;;;;;;;;5050058;28;20045;-54
2022/04/14 01:57:51;;;;;;;12.45;10.00;;;;;;;;;;5049652;28;20067;-53
2022/04/14 02:00:17;;;;;;;15.55;11.38;;;;;;;;;;5048877;28;20490;-56
2022/04/14 02:02:43;;;;;;;15.00;11.35;;;;;;;;;;5049011;28;20108;-50
2022/04/14 02:05:09;;;;;;;16.63;10.93;;;;;;;;;;5049390;28;20028;-54
2022/04/14 02:07:35;;;;;;;12.93;10.10;;;;;;;;;;5049003;28;20116;-52
2022/04/14 02:10:03;;;;;;;13.40;11.20;;;;;;;;;;5048454;28;20131;-55
2022/04/14 02:12:29;;;;;;;15.95;11.40;;;;;;;;;;5049250;28;20414;-54
2022/04/14 02:14:55;;;;;;;17.23;12.93;;;;;;;;;;5049519;28;20029;-55
2022/04/14 02:17:21;;;;;;;14.88;10.95;;;;;;;;;;5050456;28;20047;-56
2022/04/14 02:19:47;;;;;;;14.15;11.00;;;;;;;;;;5050525;28;20076;-54
2022/04/14 02:22:14;;;;;;;13.40;11.20;;;;;;;;;;5050113;28;20045;-55
2022/04/14 02:24:40;;;;;;;14.68;11.70;;;;;;;;;;5051076;28;20055;-51
2022/04/14 02:27:06;;;;;;;14.15;11.15;;;;;;;;;;5050390;28;20100;-54
2022/04/14 02:29:32;;;;;;;15.98;11.50;;;;;;;;;;5050359;28;20040;-49
2022/04/14 02:31:58;;;;;;;13.85;10.88;;;;;;;;;;5049891;28;20048;-51
2022/04/14 02:34:27;;;;;;;13.82;10.05;;;;;;;;;;5050444;28;20022;-51
2022/04/14 02:36:54;;;;;;;14.85;11.68;;;;;;;;;;5050093;28;20040;-50
2022/04/14 02:39:20;;;;;;;14.38;10.35;;;;;;;;;;5050329;28;20139;-50
2022/04/14 02:41:46;;;;;;;14.05;11.10;;;;;;;;;;5050242;28;20029;-53
2022/04/14 02:44:12;;;;;;;14.93;12.27;;;;;;;;;;5048211;28;20036;-56
2022/04/14 02:46:38;;;;;;;12.55;11.20;;;;;;;;;;5050289;28;20510;-52
2022/04/14 02:49:04;;;;;;;14.43;10.85;;;;;;;;;;5050052;28;20112;-50
2022/04/14 02:51:30;;;;;;;14.25;11.57;;;;;;;;;;5050470;28;20025;-51
2022/04/14 02:53:56;;;;;;;14.55;11.73;;;;;;;;;;5049367;28;20458;-51
2022/04/14 02:56:22;;;;;;;14.50;11.40;;;;;;;;;;5050237;28;20115;-51
2022/04/14 02:58:48;;;;;;;13.45;10.35;;;;;;;;;;5049740;28;20109;-55
2022/04/14 03:01:14;;;;;;;13.77;10.90;;;;;;;;;;5049910;28;20042;-54
2022/04/14 03:03:40;;;;;;;13.13;10.85;;;;;;;;;;5049569;28;20044;-52
2022/04/14 03:06:07;;;;;;;14.23;11.43;;;;;;;;;;5049871;28;20044;-53
2022/04/14 03:08:33;;;;;;;14.00;11.30;;;;;;;;;;5049825;28;20028;-53
2022/04/14 03:10:59;;;;;;;12.95;10.68;;;;;;;;;;5049882;28;20033;-54
2022/04/14 03:13:25;;;;;;;14.10;11.30;;;;;;;;;;5049819;28;20562;-55
2022/04/14 03:15:51;;;;;;;14.23;11.43;;;;;;;;;;5049633;28;20037;-55
2022/04/14 03:18:18;;;;;;;13.70;11.07;;;;;;;;;;5049834;28;20029;-58
2022/04/14 03:20:44;;;;;;;12.77;10.75;;;;;;;;;;5049742;28;20041;-54
2022/04/14 03:23:11;;;;;;;13.88;11.05;;;;;;;;;;5048464;28;20544;-56
2022/04/14 03:25:37;;;;;;;15.13;11.50;;;;;;;;;;5049434;28;20032;-53
2022/04/14 03:28:03;;;;;;;12.82;10.18;;;;;;;;;;5049659;28;20028;-53
2022/04/14 03:30:29;;;;;;;16.20;11.70;;;;;;;;;;5049185;28;20115;-55
2022/04/14 03:32:55;;;;;;;13.45;10.82;;;;;;;;;;5049459;28;20471;-53
2022/04/14 03:35:21;;;;;;;13.95;11.25;;;;;;;;;;5049060;28;20040;-55
2022/04/14 03:37:47;;;;;;;12.88;10.88;;;;;;;;;;5049392;28;20514;-56
2022/04/14 03:40:13;;;;;;;12.77;10.75;;;;;;;;;;5049090;28;20040;-53
2022/04/14 03:42:39;;;;;;;14.13;11.25;;;;;;;;;;5049342;28;20063;-55
2022/04/14 03:45:06;;;;;;;13.77;10.70;;;;;;;;;;5048931;28;20430;-53
2022/04/14 03:47:32;;;;;;;14.00;10.98;;;;;;;;;;5048792;28;20112;-54
2022/04/14 03:49:58;;;;;;;13.63;10.63;;;;;;;;;;5048420;28;20749;-55
2022/04/14 03:52:24;;;;;;;13.35;11.15;;;;;;;;;;5049499;28;20028;-54
2022/04/14 03:54:50;;;;;;;13.20;11.18;;;;;;;;;;5048612;28;20017;-56
2022/04/14 03:57:16;;;;;;;14.27;10.88;;;;;;;;;;5048963;28;20052;-55
2022/04/14 03:59:42;;;;;;;13.45;10.88;;;;;;;;;;5048545;28;20037;-54
2022/04/14 04:02:08;;;;;;;12.27;10.82;;;;;;;;;;5048601;28;20522;-52
2022/04/14 04:04:34;;;;;;;11.85;10.02;;;;;;;;;;5048629;28;20029;-51
2022/04/14 04:07:00;;;;;;;13.25;11.18;;;;;;;;;;5048390;28;20044;-56
2022/04/14 04:09:27;;;;;;;11.95;10.40;;;;;;;;;;5049239;28;20037;-56
2022/04/14 04:11:53;;;;;;;13.07;10.40;;;;;;;;;;5048661;28;20025;-54
2022/04/14 04:14:20;;;;;;;12.70;10.60;;;;;;;;;;5048838;28;20100;-55
2022/04/14 04:16:46;;;;;;;13.65;10.70;;;;;;;;;;5048695;28;20036;-56
2022/04/14 04:19:12;;;;;;;13.00;11.00;;;;;;;;;;5048930;28;20021;-55
2022/04/14 04:21:38;;;;;;;13.07;10.82;;;;;;;;;;5048134;28;20060;-56
2022/04/14 04:24:04;;;;;;;13.02;10.77;;;;;;;;;;5049032;28;20379;-52
2022/04/14 04:26:30;;;;;;;12.13;10.30;;;;;;;;;;5048882;28;20072;-55
2022/04/14 04:28:56;;;;;;;12.25;10.30;;;;;;;;;;5048109;28;20033;-55
2022/04/14 04:31:22;;;;;;;12.00;9.77;;;;;;;;;;5047247;28;20045;-55
2022/04/14 04:33:51;;;;;;;13.65;10.88;;;;;;;;;;5049345;28;20112;-51
2022/04/14 04:36:17;;;;;;;11.95;10.30;;;;;;;;;;5051176;28;20025;-53
2022/04/14 04:38:43;;;;;;;13.30;10.93;;;;;;;;;;5052137;28;20123;-55
2022/04/14 04:41:09;;;;;;;24.15;20.10;;;;;;;;;;5051339;28;20084;-55
2022/04/14 04:43:35;;;;;;;26.60;23.83;;;;;;;;;;5051143;28;20024;-55
2022/04/14 04:46:01;;;;;;;28.30;25.27;;;;;;;;;;5051228;28;20021;-57
2022/04/14 04:48:27;;;;;;;28.50;25.27;;;;;;;;;;5051579;28;20055;-55
2022/04/14 04:50:53;;;;;;;26.42;23.63;;;;;;;;;;5051482;28;20033;-56
2022/04/14 04:53:19;;;;;;;26.52;23.83;;;;;;;;;;5050974;28;20032;-57
2022/04/14 04:55:45;;;;;;;27.25;24.33;;;;;;;;;;5051006;28;20108;-57
2022/04/14 04:58:11;;;;;;;27.00;24.23;;;;;;;;;;5050977;28;20032;-55
2022/04/14 05:00:37;;;;;;;26.23;23.52;;;;;;;;;;5050981;28;20045;-53
2022/04/14 05:03:10;;;;;;;27.60;24.58;;;;;;;;;;5050844;28;20078;-52
2022/04/14 05:05:37;;;;;;;26.70;23.80;;;;;;;;;;5051268;28;20052;-52
2022/04/14 05:08:04;;;;;;;25.75;23.13;;;;;;;;;;5050348;28;20554;-51
2022/04/14 05:10:30;;;;;;;26.48;23.67;;;;;;;;;;5051101;28;20690;-53
2022/04/14 05:12:56;;;;;;;24.10;21.23;;;;;;;;;;5050535;28;20044;-54
2022/04/14 05:15:22;;;;;;;25.25;22.55;;;;;;;;;;5051062;28;20036;-55
2022/04/14 05:17:48;;;;;;;25.23;22.63;;;;;;;;;;5045336;28;20044;-56
2022/04/14 05:20:14;;;;;;;24.95;22.25;;;;;;;;;;5049470;28;20072;-54
2022/04/14 05:22:40;;;;;;;25.98;23.30;;;;;;;;;;5050945;28;20139;-53
2022/04/14 05:25:06;;;;;;;26.00;23.30;;;;;;;;;;5051218;28;20013;-54
2022/04/14 05:27:32;;;;;;;25.35;22.48;;;;;;;;;;5050698;28;20072;-54
2022/04/14 05:29:58;;;;;;;23.45;20.92;;;;;;;;;;5049905;28;20503;-53
2022/04/14 05:32:24;;;;;;;23.42;20.92;;;;;;;;;;5050276;28;20056;-55
2022/04/14 05:34:50;;;;;;;21.30;18.77;;;;;;;;;;5050458;28;20029;-53
2022/04/14 05:37:17;;;;;;;25.83;20.45;;;;;;;;;;5050700;28;20032;-54
2022/04/14 05:39:43;;;;;;;21.30;18.33;;;;;;;;;;5050605;28;20559;-55
2022/04/14 05:42:09;;;;;;;25.13;19.00;;;;;;;;;;5050374;28;20079;-54
2022/04/14 05:44:36;;;;;;;25.25;17.50;;;;;;;;;;5049593;28;20036;-54
2022/04/14 05:47:02;;;;;;;26.92;19.63;;;;;;;;;;5050694;28;20136;-56
2022/04/14 05:49:28;;;;;;;21.80;18.95;;;;;;;;;;5050824;28;20025;-55
2022/04/14 05:51:54;;;;;;;29.67;19.05;;;;;;;;;;5050695;28;20033;-55
2022/04/14 05:54:20;;;;;;;24.10;17.50;;;;;;;;;;5050655;28;20080;-56
2022/04/14 05:56:46;;;;;;;25.33;18.15;;;;;;;;;;5051493;28;20533;-55
2022/04/14 05:59:18;;;;;;;21.08;16.65;;;;;;;;;;5051187;28;20235;-54
2022/04/14 06:01:45;;;;;;;21.00;17.25;;;;;;;;;;5051460;28;20032;-55
2022/04/14 06:04:11;;;;;;;23.10;16.92;;;;;;;;;;5051146;28;20112;-53
2022/04/14 06:06:37;;;;;;;19.55;16.58;;;;;;;;;;5051097;28;20418;-56
2022/04/14 06:09:03;;;;;;;21.88;17.02;;;;;;;;;;5050658;28;20158;-56
2022/04/14 06:11:29;;;;;;;21.60;15.35;;;;;;;;;;5050667;28;20478;-55
2022/04/14 06:13:55;;;;;;;20.58;16.30;;;;;;;;;;5050979;28;20781;-55
2022/04/14 06:16:21;;;;;;;19.42;15.18;;;;;;;;;;5050182;28;20112;-53
2022/04/14 06:18:48;;;;;;;21.20;14.85;;;;;;;;;;5050690;28;20074;-56
2022/04/14 06:21:14;;;;;;;20.90;14.60;;;;;;;;;;5050312;28;20040;-57
2022/04/14 06:23:40;;;;;;;18.15;13.82;;;;;;;;;;5050356;28;20099;-56
2022/04/14 06:26:06;;;;;;;23.42;15.23;;;;;;;;;;5050297;28;20033;-56
2022/04/14 06:28:34;;;;;;;22.55;15.20;;;;;;;;;;5050850;28;20435;-57
2022/04/14 06:31:00;;;;;;;15.93;12.98;;;;;;;;;;5050099;28;20075;-56
2022/04/14 06:33:30;;;;;;;18.15;13.52;;;;;;;;;;5050109;28;20055;-55
2022/04/14 06:35:56;;;;;;;18.67;14.13;;;;;;;;;;5049900;28;20064;-57
2022/04/14 06:38:24;;;;;;;18.85;14.40;;;;;;;;;;5050626;28;20431;-55
2022/04/14 06:40:50;;;;;;;17.42;12.18;;;;;;;;;;5049863;28;20597;-57
2022/04/14 06:43:16;;;;;;;16.17;13.07;;;;;;;;;;5049773;28;20108;-55
2022/04/14 06:45:42;;;;;;;16.02;12.52;;;;;;;;;;5050393;28;20025;-56
2022/04/14 06:48:09;;;;;;;16.63;12.95;;;;;;;;;;5050089;28;20025;-56
2022/04/14 06:50:35;;;;;;;17.77;13.45;;;;;;;;;;5049803;28;20140;-57
2022/04/14 06:53:01;;;;;;;17.60;12.32;;;;;;;;;;5050289;28;20506;-54
2022/04/14 06:55:27;;;;;;;15.93;12.15;;;;;;;;;;5049620;28;20116;-53
2022/04/14 06:57:54;;;;;;;15.48;11.13;;;;;;;;;;5049643;28;20090;-55
2022/04/14 07:00:23;;;;;;;13.63;10.77;;;;;;;;;;5049873;28;20072;-57
2022/04/14 07:02:50;;;;;;;15.38;10.88;;;;;;;;;;5049829;28;20017;-57
2022/04/14 07:05:17;;;;;;;13.43;11.52;;;;;;;;;;5049827;28;20025;-54
2022/04/14 07:07:44;;;;;;;14.48;11.43;;;;;;;;;;5049121;28;20029;-57
2022/04/14 07:10:13;;;;;;;16.00;11.68;;;;;;;;;;5049909;28;20028;-57
2022/04/14 07:12:40;;;;;;;16.27;11.27;;;;;;;;;;5049517;28;20108;-55
2022/04/14 07:15:06;;;;;;;12.02;10.75;;;;;;;;;;5049775;28;20032;-56
2022/04/14 07:17:34;;;;;;;13.30;9.95;;;;;;;;;;5049421;28;20108;-54
2022/04/14 07:20:00;;;;;;;12.50;10.02;;;;;;;;;;5048951;28;20033;-55
2022/04/14 07:22:26;;;;;;;15.77;10.40;;;;;;;;;;5049473;28;20048;-56
2022/04/14 07:24:53;;;;;;;16.30;9.60;;;;;;;;;;5049594;28;20123;-55
2022/04/14 07:27:22;;;;;;;12.38;9.98;;;;;;;;;;5049031;28;20052;-52
2022/04/14 07:29:48;;;;;;;14.20;9.35;;;;;;;;;;5049166;28;20029;-51
2022/04/14 07:32:15;;;;;;;15.93;9.55;;;;;;;;;;5049277;28;20100;-58
2022/04/14 07:34:41;;;;;;;13.90;10.20;;;;;;;;;;5049569;28;20056;-53
2022/04/14 07:37:07;;;;;;;13.45;9.73;;;;;;;;;;5049035;28;20529;-56
2022/04/14 07:39:33;;;;;;;11.65;9.32;;;;;;;;;;5049864;28;20208;-52
2022/04/14 07:41:59;;;;;;;12.80;8.57;;;;;;;;;;5049010;28;20111;-52
2022/04/14 07:44:25;;;;;;;11.00;9.15;;;;;;;;;;5048896;28;20036;-55
2022/04/14 07:46:51;;;;;;;16.92;10.63;;;;;;;;;;5042099;28;20091;-53
2022/04/14 07:49:17;;;;;;;14.15;9.25;;;;;;;;;;5049054;28;20490;-52
2022/04/14 07:51:43;;;;;;;17.35;9.45;;;;;;;;;;5049467;28;20068;-56
2022/04/14 07:54:10;;;;;;;15.13;9.88;;;;;;;;;;5049110;28;20036;-53
2022/04/14 07:56:36;;;;;;;17.00;11.10;;;;;;;;;;5048565;28;20029;-56
2022/04/14 07:59:03;;;;;;;26.35;22.48;;;;;;;;;;5048959;28;20131;-53
2022/04/14 08:01:29;;;;;;;29.52;23.23;;;;;;;;;;5049516;28;20048;-51
2022/04/14 08:03:55;;;;;;;31.70;24.38;;;;;;;;;;5048732;28;20032;-55
2022/04/14 08:06:25;;;;;;;29.80;24.08;;;;;;;;;;5049072;28;20117;-53
2022/04/14 08:08:51;;;;;;;26.98;22.98;;;;;;;;;;5050829;28;20029;-53
2022/04/14 08:11:17;;;;;;;28.27;25.15;;;;;;;;;;5048658;28;20044;-56
2022/04/14 08:13:43;;;;;;;29.25;21.55;;;;;;;;;;5046329;28;20029;-56
2022/04/14 08:16:09;;;;;;;25.42;20.90;;;;;;;;;;5053048;28;20040;-52
2022/04/14 08:18:39;;;;;;;26.55;20.85;;;;;;;;;;5051162;28;20143;-57
2022/04/14 08:21:05;;;;;;;;;;;;;;;;;;5053329;28;20372;-53
2022/04/14 08:23:32;;;;;;;26.20;19.25;;;;;;;;;;5052719;28;19947;-54
2022/04/14 08:25:58;;;;;;;22.20;18.65;;;;;;;;;;5051280;28;20540;-57
2022/04/14 08:28:24;;;;;;;23.60;17.42;;;;;;;;;;5051347;28;20032;-53
2022/04/14 08:30:51;;;;;;;24.58;17.42;;;;;;;;;;5050551;28;20175;-54
2022/04/14 08:33:20;;;;;;;21.30;17.35;;;;;;;;;;5051090;28;20031;-53
2022/04/14 08:35:47;;;;;;;21.10;16.90;;;;;;;;;;5050048;28;20024;-53
2022/04/14 08:38:14;;;;;;;22.60;16.90;;;;;;;;;;5052153;28;20383;-51
2022/04/14 08:40:41;;;;;;;21.30;15.93;;;;;;;;;;5051621;28;20045;-53
2022/04/14 08:43:09;;;;;;;20.80;15.85;;;;;;;;;;5052707;28;20024;-57
2022/04/14 08:45:37;;;;;;;19.60;15.55;;;;;;;;;;5052565;28;20021;-55
2022/04/14 08:48:04;;;;;;;20.90;15.50;;;;;;;;;;5045724;28;20407;-55
2022/04/14 08:50:30;;;;;;;22.25;16.20;;;;;;;;;;5033448;28;20024;-53
2022/04/14 08:52:57;;;;;;;22.77;14.80;;;;;;;;;;5038255;28;20851;-55
2022/04/14 08:55:24;;;;;;;22.67;14.63;;;;;;;;;;5039690;28;20029;-55
2022/04/14 08:57:50;;;;;;;21.33;14.68;;;;;;;;;;5040588;28;20028;-55
2022/04/14 09:00:17;;;;;;;20.33;14.27;;;;;;;;;;5038484;28;20060;-54
2022/04/14 09:02:45;;;;;;;20.45;14.85;;;;;;;;;;5035876;28;20040;-56
2022/04/14 09:05:12;;;;;;;21.27;14.27;;;;;;;;;;5036744;28;20033;-56
2022/04/14 09:07:38;;;;;;;21.75;13.95;;;;;;;;;;5037162;28;20427;-55
2022/04/14 09:10:08;;;;;;;20.00;15.10;;;;;;;;;;5036591;28;20033;-56
2022/04/14 09:12:36;;;;;;;22.63;15.17;;;;;;;;;;5036001;28;20055;-56
2022/04/14 09:15:03;;;;;;;21.27;15.20;;;;;;;;;;5036286;28;20071;-54
2022/04/14 09:17:29;;;;;;;23.17;15.52;;;;;;;;;;5037800;28;20051;-54
2022/04/14 09:19:55;;;;;;;22.38;15.15;;;;;;;;;;5033737;28;20033;-55
2022/04/14 09:22:21;;;;;;;20.90;14.80;;;;;;;;;;5034566;28;20487;-55
2022/04/14 09:24:51;;;;;;;23.25;14.50;;;;;;;;;;5037016;28;20030;-56
2022/04/14 09:27:37;;;;;;;20.63;15.00;;;;;;;;;;5034514;28;20034;-56
2022/04/14 09:30:07;;;;;;;19.58;13.70;;;;;;;;;;5036163;28;20068;-55
2022/04/14 09:32:43;;;;;;;19.23;14.27;;;;;;;;;;5037975;28;20031;-55
2022/04/14 09:35:19;;;;;;;20.25;13.55;;;;;;;;;;5034737;28;20495;-59
2022/04/14 09:37:45;;;;;;;19.45;13.75;;;;;;;;;;5035691;28;20028;-55
2022/04/14 09:40:12;;;;;;;21.02;13.93;;;;;;;;;;5032803;28;20041;-56
2022/04/14 09:42:39;;;;;;;22.83;15.02;;;;;;;;;;5035421;28;20635;-57
2022/04/14 09:45:28;;;;;;;18.08;12.80;;;;;;;;;;5034072;28;20026;-57
2022/04/14 09:47:55;;;;;;;20.77;12.75;;;;;;;;;;5035312;28;20018;-55
2022/04/14 09:50:26;;;;;;;21.70;14.27;;;;;;;;;;5034817;28;20115;-56
2022/04/14 09:52:56;;;;;;;17.20;12.15;;;;;;;;;;5038285;28;20029;-54
2022/04/14 09:55:22;;;;;;;18.25;11.32;;;;;;;;;;5036326;28;20032;-55
2022/04/14 09:58:07;;;;;;;23.88;11.48;;;;;;;;;;5038093;28;20053;-54
2022/04/14 10:00:40;;;;;;;19.17;11.00;;;;;;;;;;5035382;28;20096;-53
2022/04/14 10:03:14;;;;;;;16.23;8.95;;;;;;;;;;5035236;28;20033;-56
2022/04/14 10:05:40;;;;;;;14.95;9.93;;;;;;;;;;5032799;28;20036;-56
2022/04/14 10:08:08;;;;;;;15.45;9.85;;;;;;;;;;5037676;28;20124;-57
2022/04/14 10:10:35;;;;;;;14.20;9.85;;;;;;;;;;5032990;28;20017;-56
2022/04/14 10:13:07;;;;;;;15.63;10.63;;;;;;;;;;5031961;28;20028;-56
2022/04/14 10:15:38;;;;;;;17.33;10.65;;;;;;;;;;5033125;28;20083;-57
2022/04/14 10:18:06;;;;;;;20.30;12.25;;;;;;;;;;5035115;28;20025;-56
2022/04/14 10:20:33;;;;;;;20.75;10.88;;;;;;;;;;5035927;28;20080;-57
2022/04/14 10:23:02;;;;;;;20.33;11.30;;;;;;;;;;5032348;28;20478;-57
2022/04/14 10:25:29;;;;;;;23.87;12.30;;;;;;;;;;5033307;28;20040;-57
2022/04/14 10:27:56;;;;;;;20.88;11.88;;;;;;;;;;5032186;28;20032;-54
2022/04/14 10:30:23;;;;;;;19.27;11.32;;;;;;;;;;5030559;28;20416;-56
2022/04/14 10:32:50;;;;;;;16.00;9.63;;;;;;;;;;5038919;28;20499;-55
2022/04/14 10:35:16;;;;;;;17.42;9.60;;;;;;;;;;5033854;28;20032;-56
2022/04/14 10:37:43;;;;;;;19.63;10.65;;;;;;;;;;5034812;28;20040;-57
2022/04/14 10:40:10;;;;;;;14.27;9.75;;;;;;;;;;5036113;28;20041;-55
2022/04/14 10:42:37;;;;;;;16.42;10.48;;;;;;;;;;5032920;28;20402;-57
2022/04/14 10:45:15;;;;;;;15.23;10.75;;;;;;;;;;5034665;28;20032;-56
2022/04/14 10:47:44;;;;;;;17.85;10.32;;;;;;;;;;5033255;28;20038;-57
2022/04/14 10:50:25;;;;;;;23.77;10.77;;;;;;;;;;5035493;28;20028;-57
2022/04/14 10:53:21;;;;;;;21.83;10.38;;;;;;;;;;5034602;28;20495;-56
2022/04/14 10:55:47;;;;;;;20.80;10.20;;;;;;;;;;5026244;28;20487;-56
2022/04/14 10:58:32;;;;;;;22.17;9.52;;;;;;;;;;5034167;28;20031;-59
2022/04/14 11:01:04;;;;;;;18.83;10.00;;;;;;;;;;5035088;28;20037;-58
2022/04/14 11:03:46;;;;;;;18.27;9.88;;;;;;;;;;5034795;28;20516;-57
2022/04/14 11:06:32;;;;;;;28.77;10.82;;;;;;;;;;5031264;28;20071;-55
2022/04/14 11:09:00;;;;;;;19.05;10.68;;;;;;;;;;5031777;28;20112;-56
2022/04/14 11:11:26;;;;;;;15.43;10.63;;;;;;;;;;5033693;28;20686;-56
2022/04/14 11:13:52;;;;;;;12.93;7.68;;;;;;;;;;5034362;28;20082;-54
2022/04/14 11:16:50;;;;;;;17.20;8.98;;;;;;;;;;5036858;28;20224;-59
2022/04/14 11:19:24;;;;;;;13.10;7.30;;;;;;;;;;5021059;28;20043;-52
2022/04/14 11:22:13;;;;;;;11.77;7.13;;;;;;;;;;5032623;28;20549;-55
2022/04/14 11:24:40;;;;;;;12.90;7.53;;;;;;;;;;5032905;28;20025;-55
2022/04/14 11:27:09;;;;;;;14.02;7.22;;;;;;;;;;5034307;28;20360;-55
2022/04/14 11:29:35;;;;;;;12.70;6.75;;;;;;;;;;5034077;28;20041;-56
2022/04/14 11:32:01;;;;;;;13.38;7.03;;;;;;;;;;5032991;28;20045;-55
2022/04/14 11:34:32;;;;;;;10.32;6.57;;;;;;;;;;5034340;28;20030;-57
2022/04/14 11:36:59;;;;;;;;;;;;;;;;;;5033034;28;20690;-57
2022/04/14 11:39:25;;;;;;;13.23;6.88;;;;;;;;;;5036708;28;19921;-55
2022/04/14 11:41:53;;;;;;;10.75;5.88;;;;;;;;;;5031109;28;20108;-52
2022/04/14 11:44:22;;;;;;;15.00;6.40;;;;;;;;;;5031134;28;21452;-57
2022/04/14 11:46:52;;;;;;;17.20;5.85;;;;;;;;;;5033278;28;20044;-56
2022/04/14 11:49:21;;;;;;;15.90;6.45;;;;;;;;;;5033196;28;20060;-57
2022/04/14 11:51:51;;;;;;;23.58;6.25;;;;;;;;;;5033780;28;20116;-56
2022/04/14 11:54:46;;;;;;;19.90;6.18;;;;;;;;;;5031789;28;20029;-54
2022/04/14 11:57:18;;;;;;;20.08;6.32;;;;;;;;;;5033259;28;20029;-55
2022/04/14 11:59:45;;;;;;;21.92;6.13;;;;;;;;;;5032877;28;20029;-57
2022/04/14 12:02:14;;;;;;;17.42;6.13;;;;;;;;;;5033197;28;20116;-55
2022/04/14 12:04:43;;;;;;;18.35;6.53;;;;;;;;;;5033190;28;20028;-56
2022/04/14 12:07:09;;;;;;;22.50;5.90;;;;;;;;;;5033676;28;20450;-51
2022/04/14 12:09:37;;;;;;;15.02;6.10;;;;;;;;;;5033205;28;20029;-56
2022/04/14 12:12:16;;;;;;;11.63;5.65;;;;;;;;;;5031180;28;20033;-55
2022/04/14 12:14:47;;;;;;;21.25;4.97;;;;;;;;;;5034004;28;20082;-56
2022/04/14 12:17:14;;;;;;;13.25;5.10;;;;;;;;;;5033773;28;23283;-54
2022/04/14 12:19:44;;;;;;;20.67;5.70;;;;;;;;;;5033303;28;20562;-53
2022/04/14 12:22:10;;;;;;;17.27;5.70;;;;;;;;;;5029165;28;20029;-54
2022/04/14 12:24:37;;;;;;;13.70;5.43;;;;;;;;;;5033871;28;20032;-55
2022/04/14 12:27:03;;;;;;;9.57;4.35;;;;;;;;;;5033297;28;20087;-55
2022/04/14 12:29:29;;;;;;;18.15;5.07;;;;;;;;;;5035337;28;20635;-51
2022/04/14 12:32:08;;;;;;;17.42;5.57;;;;;;;;;;5033745;28;20054;-56
2022/04/14 12:34:34;;;;;;;19.52;5.90;;;;;;;;;;5035143;28;20523;-55
2022/04/14 12:37:13;;;;;;;11.18;4.43;;;;;;;;;;5031538;28;20914;-55
2022/04/14 12:40:13;;;;;;;13.68;4.70;;;;;;;;;;5032457;28;20050;-61
2022/04/14 12:42:39;;;;;;;17.63;5.03;;;;;;;;;;5017391;28;20045;-57
2022/04/14 12:45:12;;;;;;;12.40;4.28;;;;;;;;;;5033311;28;20159;-55
2022/04/14 12:47:45;;;;;;;15.70;5.55;;;;;;;;;;5031711;28;20025;-52
2022/04/14 12:50:12;;;;;;;17.08;4.15;;;;;;;;;;5027127;28;20029;-54
2022/04/14 12:52:39;;;;;;;12.63;4.15;;;;;;;;;;5034783;28;20079;-55
2022/04/14 12:55:06;;;;;;;16.17;4.40;;;;;;;;;;5033783;28;20450;-56
2022/04/14 12:57:33;;;;;;;15.80;3.67;;;;;;;;;;5035044;28;20086;-53
2022/04/14 13:00:00;;;;;;;9.48;3.97;;;;;;;;;;5036175;28;20065;-56
2022/04/14 13:02:26;;;;;;;12.35;4.07;;;;;;;;;;5035124;28;20064;-55
2022/04/14 13:05:04;;;;;;;12.40;3.88;;;;;;;;;;5037594;28;20387;-55
2022/04/14 13:07:30;;;;;;;16.75;4.13;;;;;;;;;;5036584;28;20028;-55
2022/04/14 13:09:59;;;;;;;14.50;3.60;;;;;;;;;;5032395;28;20543;-54
2022/04/14 13:12:42;;;;;;;12.85;4.28;;;;;;;;;;5034029;28;20128;-56
2022/04/14 13:15:09;;;;;;;14.40;3.58;;;;;;;;;;5034358;28;20790;-54
2022/04/14 13:17:39;;;;;;;14.63;3.55;;;;;;;;;;5036268;28;20553;-56
2022/04/14 13:20:12;;;;;;;9.18;3.22;;;;;;;;;;5039529;28;20102;-52
2022/04/14 13:22:39;;;;;;;11.00;2.90;;;;;;;;;;5034334;28;20540;-57
2022/04/14 13:25:05;;;;;;;18.25;3.58;;;;;;;;;;5035414;28;20150;-54
2022/04/14 13:27:31;;;;;;;9.75;3.08;;;;;;;;;;5035692;28;20116;-54
2022/04/14 13:29:59;;;;;;;11.60;3.22;;;;;;;;;;5037616;28;20065;-55
2022/04/14 13:32:26;;;;;;;11.32;3.20;;;;;;;;;;5035676;28;20056;-55
2022/04/14 13:34:53;;;;;;;14.30;3.65;;;;;;;;;;5035032;28;20037;-56
2022/04/14 13:37:19;;;;;;;8.32;2.80;;;;;;;;;;5034094;28;20063;-56
2022/04/14 13:39:47;;;;;;;7.63;3.05;;;;;;;;;;5036982;28;20467;-56
2022/04/14 13:42:14;;;;;;;7.95;2.50;;;;;;;;;;5034023;28;20040;-55
2022/04/14 13:44:41;;;;;;;15.48;3.33;;;;;;;;;;5035138;28;20202;-53
2022/04/14 13:47:07;;;;;;;8.05;2.65;;;;;;;;;;5034117;28;20657;-55
2022/04/14 13:49:33;;;;;;;13.13;2.83;;;;;;;;;;5033382;28;20033;-54
2022/04/14 13:52:01;;;;;;;9.18;3.13;;;;;;;;;;5036644;28;20025;-56
2022/04/14 13:54:27;;;;;;;13.45;3.42;;;;;;;;;;5034592;28;20564;-53
2022/04/14 13:56:53;;;;;;;8.52;3.15;;;;;;;;;;5039896;28;20497;-56
2022/04/14 13:59:19;;;;;;;10.48;3.17;;;;;;;;;;5037322;28;20486;-57
2022/04/14 14:01:45;;;;;;;7.18;2.50;;;;;;;;;;5035494;28;20194;-55
2022/04/14 14:04:11;;;;;;;7.93;3.22;;;;;;;;;;5033897;28;20033;-54
2022/04/14 14:06:37;;;;;;;11.55;3.00;;;;;;;;;;5035292;28;20120;-56
2022/04/14 14:09:03;;;;;;;8.65;2.10;;;;;;;;;;5033456;28;20113;-53
2022/04/14 14:11:30;;;;;;;8.15;2.38;;;;;;;;;;5031651;28;20037;-56
2022/04/14 14:13:56;;;;;;;9.35;2.47;;;;;;;;;;5033108;28;20018;-57
2022/04/14 14:16:22;;;;;;;8.65;2.25;;;;;;;;;;5033582;28;20063;-56
2022/04/14 14:18:48;;;;;;;8.60;2.20;;;;;;;;;;5028050;28;20038;-56
2022/04/14 14:21:14;;;;;;;6.07;2.00;;;;;;;;;;5036532;28;20045;-54
2022/04/14 14:23:40;;;;;;;12.18;2.33;;;;;;;;;;5033714;28;20453;-56